Time,TemperatureF,DewpointF,PressureIn,WindDirection,WindDirectionDegrees,WindSpeedMPH,WindSpeedGustMPH,Humidity,HourlyPrecipIn,Conditions,Clouds,dailyrainin,SoftwareType,DateUTC
2013-02-03 00:00:00,7.5,1.5,29.96,West,270,0.0,0.0,76,0.00,,,0.00,WUHU21623XXSP,2013-02-03 05:00:00,
2013-02-03 00:05:00,7.3,1.3,29.96,West,270,0.0,0.0,76,0.00,,,0.00,WUHU21623XXSP,2013-02-03 05:05:00,
2013-02-03 00:10:00,7.2,1.1,29.96,West,270,0.0,0.0,76,0.00,,,0.00,WUHU21623XXSP,2013-02-03 05:10:00,
2013-02-03 00:15:00,7.0,1.0,29.96,West,270,0.0,0.0,76,0.00,,,0.00,WUHU21623XXSP,2013-02-03 05:15:00,
2013-02-03 00:20:00,6.6,0.6,29.96,West,270,0.0,0.0,76,0.00,,,0.00,WUHU21623XXSP,2013-02-03 05:20:00,
2013-02-03 00:25:00,6.6,0.6,29.96,West,270,0.0,0.0,76,0.00,,,0.00,WUHU21623XXSP,2013-02-03 05:25:00,
2013-02-03 00:30:00,6.4,0.4,29.96,West,270,0.0,0.0,76,0.00,,,0.00,WUHU21623XXSP,2013-02-03 05:30:00,
2013-02-03 00:35:00,6.4,0.4,29.96,West,270,0.0,0.0,76,0.00,,,0.00,WUHU21623XXSP,2013-02-03 05:35:00,
2013-02-03 00:40:00,6.4,0.4,29.96,West,270,0.0,0.0,76,0.00,,,0.00,WUHU21623XXSP,2013-02-03 05:40:00,
2013-02-03 00:45:00,6.1,0.1,29.96,West,270,0.0,0.0,76,0.00,,,0.00,WUHU21623XXSP,2013-02-03 05:45:00,
2013-02-03 00:50:00,6.1,0.1,29.96,West,270,0.0,0.0,76,0.00,,,0.00,WUHU21623XXSP,2013-02-03 05:50:00,
2013-02-03 00:55:00,6.1,0.4,29.96,West,270,0.0,0.0,77,0.00,,,0.00,WUHU21623XXSP,2013-02-03 05:55:00,
2013-02-03 01:00:00,5.9,0.2,29.96,West,270,0.0,0.0,77,0.00,,,0.00,WUHU21623XXSP,2013-02-03 06:00:00,
2013-02-03 01:07:00,5.9,0.2,29.95,West,270,0.0,0.0,77,0.00,,,0.00,WUHU21623XXSP,2013-02-03 06:07:00,
2013-02-03 01:12:00,5.7,0.0,29.95,West,270,0.0,0.0,77,0.00,,,0.00,WUHU21623XXSP,2013-02-03 06:12:00,
2013-02-03 01:17:00,5.5,-0.2,29.95,West,270,0.0,0.0,77,0.00,,,0.00,WUHU21623XXSP,2013-02-03 06:17:00,
2013-02-03 01:23:00,5.5,-0.2,29.95,West,270,0.0,0.0,77,0.00,,,0.00,WUHU21623XXSP,2013-02-03 06:23:00,
2013-02-03 01:28:00,5.4,-0.4,29.95,West,270,0.0,0.0,77,0.00,,,0.00,WUHU21623XXSP,2013-02-03 06:28:00,
2013-02-03 01:32:00,5.2,-0.5,29.95,West,270,0.0,0.0,77,0.00,,,0.00,WUHU21623XXSP,2013-02-03 06:32:00,
2013-02-03 01:37:00,5.2,-0.5,29.94,West,270,0.0,0.0,77,0.00,,,0.00,WUHU21623XXSP,2013-02-03 06:37:00,
2013-02-03 01:42:00,5.0,-0.7,29.95,West,270,0.0,0.0,77,0.00,,,0.00,WUHU21623XXSP,2013-02-03 06:42:00,
2013-02-03 01:48:00,5.2,-0.5,29.94,West,270,0.0,0.0,77,0.00,,,0.00,WUHU21623XXSP,2013-02-03 06:48:00,
2013-02-03 01:53:00,5.4,-0.4,29.94,West,270,0.0,0.0,77,0.00,,,0.00,WUHU21623XXSP,2013-02-03 06:53:00,
2013-02-03 01:57:00,5.4,-0.4,29.94,West,270,0.0,0.0,77,0.00,,,0.00,WUHU21623XXSP,2013-02-03 06:57:00,
2013-02-03 02:02:00,5.4,-0.4,29.94,West,270,0.0,0.0,77,0.00,,,0.00,WUHU21623XXSP,2013-02-03 07:02:00,
2013-02-03 02:07:00,5.4,-0.2,29.94,West,270,0.0,0.0,77,0.00,,,0.00,WUHU21623XXSP,2013-02-03 07:07:00,
2013-02-03 02:12:00,5.4,-0.4,29.94,West,270,0.0,0.0,77,0.00,,,0.00,WUHU21623XXSP,2013-02-03 07:12:00,
2013-02-03 02:18:00,5.5,0.1,29.94,West,270,0.0,0.0,78,0.00,,,0.00,WUHU21623XXSP,2013-02-03 07:18:00,
2013-02-03 02:22:00,5.5,0.1,29.94,West,270,0.0,0.0,78,0.00,,,0.00,WUHU21623XXSP,2013-02-03 07:22:00,
2013-02-03 02:28:00,5.5,0.1,29.94,West,270,0.0,0.0,78,0.00,,,0.00,WUHU21623XXSP,2013-02-03 07:28:00,
2013-02-03 02:32:00,5.4,-0.1,29.94,West,270,0.0,0.0,78,0.00,,,0.00,WUHU21623XXSP,2013-02-03 07:32:00,
2013-02-03 02:37:00,5.5,-0.1,29.94,West,270,0.0,0.0,78,0.00,,,0.00,WUHU21623XXSP,2013-02-03 07:37:00,
2013-02-03 02:42:00,5.4,-0.1,29.94,West,270,0.0,0.0,78,0.00,,,0.00,WUHU21623XXSP,2013-02-03 07:42:00,
2013-02-03 02:47:00,5.5,0.1,29.94,West,270,0.0,0.0,78,0.00,,,0.00,WUHU21623XXSP,2013-02-03 07:47:00,
2013-02-03 02:52:00,5.4,-0.1,29.94,West,270,0.0,0.0,78,0.00,,,0.00,WUHU21623XXSP,2013-02-03 07:52:00,
2013-02-03 02:57:00,5.4,0.1,29.93,West,270,0.0,0.0,78,0.00,,,0.00,WUHU21623XXSP,2013-02-03 07:57:00,
2013-02-03 03:02:00,5.4,-0.1,29.94,West,270,0.0,0.0,78,0.00,,,0.00,WUHU21623XXSP,2013-02-03 08:02:00,
2013-02-03 03:07:00,5.4,-0.1,29.94,West,270,0.0,0.0,78,0.00,,,0.00,WUHU21623XXSP,2013-02-03 08:07:00,
2013-02-03 03:12:00,5.4,-0.1,29.93,West,270,0.0,0.0,78,0.00,,,0.00,WUHU21623XXSP,2013-02-03 08:12:00,
2013-02-03 03:17:00,5.4,-0.1,29.93,West,270,0.0,0.0,78,0.00,,,0.00,WUHU21623XXSP,2013-02-03 08:17:00,
2013-02-03 03:22:00,5.5,0.1,29.93,West,270,0.0,0.0,78,0.00,,,0.00,WUHU21623XXSP,2013-02-03 08:22:00,
2013-02-03 03:27:00,5.5,0.1,29.92,West,270,0.0,0.0,78,0.00,,,0.00,WUHU21623XXSP,2013-02-03 08:27:00,
2013-02-03 03:32:00,5.5,0.1,29.92,West,270,0.0,0.0,78,0.00,,,0.00,WUHU21623XXSP,2013-02-03 08:32:00,
2013-02-03 03:37:00,5.5,0.1,29.91,West,270,0.0,0.0,78,0.00,,,0.00,WUHU21623XXSP,2013-02-03 08:37:00,
2013-02-03 03:42:00,5.5,0.1,29.91,West,270,0.0,0.0,78,0.00,,,0.00,WUHU21623XXSP,2013-02-03 08:42:00,
2013-02-03 03:47:00,5.7,0.3,29.91,West,270,0.0,0.0,78,0.00,,,0.00,WUHU21623XXSP,2013-02-03 08:47:00,
2013-02-03 03:52:00,5.5,0.1,29.91,West,270,0.0,0.0,78,0.00,,,0.00,WUHU21623XXSP,2013-02-03 08:52:00,
2013-02-03 03:57:00,5.5,0.1,29.91,West,270,0.0,0.0,78,0.00,,,0.00,WUHU21623XXSP,2013-02-03 08:57:00,
2013-02-03 04:02:00,5.4,-0.1,29.90,West,270,0.0,0.0,78,0.00,,,0.00,WUHU21623XXSP,2013-02-03 09:02:00,
2013-02-03 04:07:00,5.2,-0.3,29.90,West,270,0.0,0.0,78,0.00,,,0.00,WUHU21623XXSP,2013-02-03 09:07:00,
2013-02-03 04:12:00,5.2,-0.3,29.90,West,270,0.0,0.0,78,0.00,,,0.00,WUHU21623XXSP,2013-02-03 09:12:00,
2013-02-03 04:17:00,4.8,-0.6,29.90,West,270,0.0,0.0,78,0.00,,,0.00,WUHU21623XXSP,2013-02-03 09:17:00,
2013-02-03 04:22:00,4.8,-0.6,29.90,West,270,0.0,0.0,78,0.00,,,0.00,WUHU21623XXSP,2013-02-03 09:22:00,
2013-02-03 04:27:00,4.6,-0.8,29.90,West,270,0.0,0.0,78,0.00,,,0.00,WUHU21623XXSP,2013-02-03 09:27:00,
2013-02-03 04:32:00,4.5,-1.0,29.90,West,270,0.0,0.0,78,0.00,,,0.00,WUHU21623XXSP,2013-02-03 09:32:00,
2013-02-03 04:37:00,4.3,-0.9,29.90,West,270,0.0,0.0,78,0.00,,,0.00,WUHU21623XXSP,2013-02-03 09:37:00,
2013-02-03 04:42:00,4.1,-1.3,29.90,West,270,0.0,0.0,78,0.00,,,0.00,WUHU21623XXSP,2013-02-03 09:42:00,
2013-02-03 04:47:00,3.9,-1.5,29.90,West,270,0.0,0.0,78,0.00,,,0.00,WUHU21623XXSP,2013-02-03 09:47:00,
2013-02-03 04:52:00,3.9,-1.5,29.89,West,270,0.0,0.0,78,0.00,,,0.00,WUHU21623XXSP,2013-02-03 09:52:00,
2013-02-03 04:57:00,3.7,-1.7,29.90,West,270,0.0,0.0,78,0.00,,,0.00,WUHU21623XXSP,2013-02-03 09:57:00,
2013-02-03 05:03:00,3.6,-1.9,29.89,West,270,0.0,0.0,78,0.00,,,0.00,WUHU21623XXSP,2013-02-03 10:03:00,
2013-02-03 05:08:00,3.4,-2.0,29.89,West,270,0.0,0.0,78,0.00,,,0.00,WUHU21623XXSP,2013-02-03 10:08:00,
2013-02-03 05:13:00,3.4,-2.0,29.89,West,270,0.0,0.0,78,0.00,,,0.00,WUHU21623XXSP,2013-02-03 10:13:00,
2013-02-03 05:18:00,3.0,-2.4,29.89,West,270,0.0,0.0,78,0.00,,,0.00,WUHU21623XXSP,2013-02-03 10:18:00,
2013-02-03 05:23:00,2.8,-2.6,29.89,West,270,0.0,0.0,78,0.00,,,0.00,WUHU21623XXSP,2013-02-03 10:23:00,
2013-02-03 05:28:00,2.5,-2.9,29.89,West,270,0.0,0.0,78,0.00,,,0.00,WUHU21623XXSP,2013-02-03 10:28:00,
2013-02-03 05:33:00,2.3,-3.1,29.89,West,270,0.0,0.0,78,0.00,,,0.00,WUHU21623XXSP,2013-02-03 10:33:00,
2013-02-03 05:38:00,2.1,-3.3,29.89,West,270,0.0,0.0,78,0.00,,,0.00,WUHU21623XXSP,2013-02-03 10:38:00,
2013-02-03 05:43:00,1.9,-3.5,29.89,West,270,0.0,0.0,78,0.00,,,0.00,WUHU21623XXSP,2013-02-03 10:43:00,
2013-02-03 05:48:00,1.8,-3.6,29.89,West,270,0.0,0.0,78,0.00,,,0.00,WUHU21623XXSP,2013-02-03 10:48:00,
2013-02-03 05:53:00,1.6,-3.6,29.89,West,270,0.0,0.0,78,0.00,,,0.00,WUHU21623XXSP,2013-02-03 10:53:00,
2013-02-03 05:58:00,1.6,-3.8,29.89,West,270,0.0,0.0,78,0.00,,,0.00,WUHU21623XXSP,2013-02-03 10:58:00,
2013-02-03 06:03:00,1.4,-4.0,29.89,West,270,0.0,0.0,78,0.00,,,0.00,WUHU21623XXSP,2013-02-03 11:03:00,
2013-02-03 06:08:00,1.4,-4.0,29.89,West,270,0.0,0.0,78,0.00,,,0.00,WUHU21623XXSP,2013-02-03 11:08:00,
2013-02-03 06:13:00,1.2,-4.2,29.89,West,270,0.0,0.0,78,0.00,,,0.00,WUHU21623XXSP,2013-02-03 11:13:00,
2013-02-03 06:18:00,1.2,-4.2,29.89,West,270,0.0,0.0,78,0.00,,,0.00,WUHU21623XXSP,2013-02-03 11:18:00,
2013-02-03 06:23:00,1.2,-4.5,29.89,West,270,0.0,0.0,77,0.00,,,0.00,WUHU21623XXSP,2013-02-03 11:23:00,
2013-02-03 06:28:00,1.0,-4.6,29.89,West,270,0.0,0.0,77,0.00,,,0.00,WUHU21623XXSP,2013-02-03 11:28:00,
2013-02-03 06:33:00,1.0,-4.6,29.89,West,270,0.0,0.0,77,0.00,,,0.00,WUHU21623XXSP,2013-02-03 11:33:00,
2013-02-03 06:38:00,1.0,-4.3,29.88,West,270,0.0,0.0,78,0.00,,,0.00,WUHU21623XXSP,2013-02-03 11:38:00,
2013-02-03 06:43:00,1.2,-4.2,29.88,West,270,0.0,0.0,78,0.00,,,0.00,WUHU21623XXSP,2013-02-03 11:43:00,
2013-02-03 06:48:00,1.2,-4.2,29.88,West,270,0.0,0.0,78,0.00,,,0.00,WUHU21623XXSP,2013-02-03 11:48:00,
2013-02-03 06:53:00,1.4,-4.0,29.88,West,270,0.0,0.0,78,0.00,,,0.00,WUHU21623XXSP,2013-02-03 11:53:00,
2013-02-03 06:58:00,1.4,-4.0,29.88,West,270,0.0,0.0,78,0.00,,,0.00,WUHU21623XXSP,2013-02-03 11:58:00,
2013-02-03 07:03:00,1.4,-4.0,29.88,West,270,0.0,0.0,78,0.00,,,0.00,WUHU21623XXSP,2013-02-03 12:03:00,
2013-02-03 07:08:00,1.6,-3.8,29.88,West,270,0.0,0.0,78,0.00,,,0.00,WUHU21623XXSP,2013-02-03 12:08:00,
2013-02-03 07:13:00,1.8,-3.6,29.88,West,270,0.0,0.0,78,0.00,,,0.00,WUHU21623XXSP,2013-02-03 12:13:00,
2013-02-03 07:18:00,1.8,-3.6,29.88,West,270,0.0,0.0,78,0.00,,,0.00,WUHU21623XXSP,2013-02-03 12:18:00,
2013-02-03 07:23:00,1.8,-3.6,29.88,West,270,0.0,0.0,78,0.00,,,0.00,WUHU21623XXSP,2013-02-03 12:23:00,
2013-02-03 07:28:00,1.8,-3.6,29.88,West,270,0.0,0.0,78,0.00,,,0.00,WUHU21623XXSP,2013-02-03 12:28:00,
2013-02-03 07:33:00,1.9,-3.5,29.88,West,270,0.0,0.0,78,0.00,,,0.00,WUHU21623XXSP,2013-02-03 12:33:00,
2013-02-03 07:38:00,1.8,-3.6,29.88,West,270,0.0,0.0,78,0.00,,,0.00,WUHU21623XXSP,2013-02-03 12:38:00,
2013-02-03 07:43:00,1.8,-3.6,29.88,West,270,0.0,0.0,78,0.00,,,0.00,WUHU21623XXSP,2013-02-03 12:43:00,
2013-02-03 07:48:00,1.8,-3.6,29.88,West,270,0.0,0.0,78,0.00,,,0.00,WUHU21623XXSP,2013-02-03 12:48:00,
2013-02-03 07:53:00,1.9,-3.5,29.88,West,270,0.0,0.0,78,0.00,,,0.00,WUHU21623XXSP,2013-02-03 12:53:00,
2013-02-03 07:58:00,1.9,-3.5,29.88,West,270,0.0,0.0,78,0.00,,,0.00,WUHU21623XXSP,2013-02-03 12:58:00,
2013-02-03 08:03:00,2.3,-3.1,29.88,West,270,0.0,0.0,78,0.00,,,0.00,WUHU21623XXSP,2013-02-03 13:03:00,
2013-02-03 08:08:00,2.5,-2.6,29.88,West,270,0.0,0.0,79,0.00,,,0.00,WUHU21623XXSP,2013-02-03 13:08:00,
2013-02-03 08:13:00,2.8,-2.3,29.87,West,270,0.0,0.0,79,0.00,,,0.00,WUHU21623XXSP,2013-02-03 13:13:00,
2013-02-03 08:18:00,2.8,-2.3,29.87,West,270,0.0,0.0,79,0.00,,,0.00,WUHU21623XXSP,2013-02-03 13:18:00,
2013-02-03 08:23:00,3.0,-2.1,29.87,West,270,0.0,0.0,79,0.00,,,0.00,WUHU21623XXSP,2013-02-03 13:23:00,
2013-02-03 08:28:00,3.4,-1.8,29.87,West,270,0.0,0.0,79,0.00,,,0.00,WUHU21623XXSP,2013-02-03 13:28:00,
2013-02-03 08:33:00,3.6,-1.6,29.88,West,270,0.0,0.0,79,0.00,,,0.00,WUHU21623XXSP,2013-02-03 13:33:00,
2013-02-03 08:38:00,3.7,-1.4,29.88,West,270,0.0,0.0,79,0.00,,,0.00,WUHU21623XXSP,2013-02-03 13:38:00,
2013-02-03 08:43:00,3.9,-1.2,29.88,West,270,0.0,0.0,79,0.00,,,0.00,WUHU21623XXSP,2013-02-03 13:43:00,
2013-02-03 08:48:00,4.1,-1.0,29.88,West,270,0.0,0.0,79,0.00,,,0.00,WUHU21623XXSP,2013-02-03 13:48:00,
2013-02-03 08:53:00,4.3,-0.9,29.88,West,270,0.0,0.0,79,0.00,,,0.00,WUHU21623XXSP,2013-02-03 13:53:00,
2013-02-03 08:58:00,4.8,-0.3,29.88,West,270,0.0,0.0,79,0.00,,,0.00,WUHU21623XXSP,2013-02-03 13:58:00,
2013-02-03 09:03:00,5.0,-0.1,29.88,West,270,0.0,0.0,79,0.00,,,0.00,WUHU21623XXSP,2013-02-03 14:03:00,
2013-02-03 09:08:00,5.5,0.4,29.88,West,270,0.0,0.0,79,0.00,,,0.00,WUHU21623XXSP,2013-02-03 14:08:00,
2013-02-03 09:13:00,5.9,0.8,29.89,West,270,0.0,0.0,79,0.00,,,0.00,WUHU21623XXSP,2013-02-03 14:13:00,
2013-02-03 09:18:00,6.1,1.2,29.88,West,270,0.0,0.0,80,0.00,,,0.00,WUHU21623XXSP,2013-02-03 14:18:00,
2013-02-03 09:23:00,6.4,1.6,29.89,West,270,0.0,0.0,80,0.00,,,0.00,WUHU21623XXSP,2013-02-03 14:23:00,
2013-02-03 09:28:00,7.0,2.1,29.89,West,270,0.0,0.0,80,0.00,,,0.00,WUHU21623XXSP,2013-02-03 14:28:00,
2013-02-03 09:33:00,7.2,2.3,29.88,West,270,0.0,0.0,80,0.00,,,0.00,WUHU21623XXSP,2013-02-03 14:33:00,
2013-02-03 09:38:00,7.5,2.7,29.88,West,270,0.0,0.0,80,0.00,,,0.00,WUHU21623XXSP,2013-02-03 14:38:00,
2013-02-03 09:44:00,8.1,3.2,29.88,West,270,0.0,0.0,80,0.00,,,0.00,WUHU21623XXSP,2013-02-03 14:44:00,
2013-02-03 09:48:00,8.4,3.6,29.88,West,270,0.0,0.0,80,0.00,,,0.00,WUHU21623XXSP,2013-02-03 14:48:00,
2013-02-03 09:54:00,8.6,3.7,29.88,West,270,0.0,0.0,80,0.00,,,0.00,WUHU21623XXSP,2013-02-03 14:54:00,
2013-02-03 09:58:00,9.1,4.5,29.88,West,270,0.0,0.0,81,0.00,,,0.00,WUHU21623XXSP,2013-02-03 14:58:00,
2013-02-03 10:04:00,9.5,4.6,29.87,West,270,0.0,0.0,81,0.00,,,0.00,WUHU21623XXSP,2013-02-03 15:04:00,
2013-02-03 10:09:00,10.0,5.3,29.87,West,270,0.0,0.0,81,0.00,,,0.00,WUHU21623XXSP,2013-02-03 15:09:00,
2013-02-03 10:14:00,10.6,5.4,29.87,West,270,0.0,0.0,81,0.00,,,0.00,WUHU21623XXSP,2013-02-03 15:14:00,
2013-02-03 10:19:00,10.9,6.2,29.87,West,270,0.0,0.0,81,0.00,,,0.00,WUHU21623XXSP,2013-02-03 15:19:00,
2013-02-03 10:24:00,11.3,6.5,29.86,West,270,0.0,0.0,81,0.00,,,0.00,WUHU21623XXSP,2013-02-03 15:24:00,
2013-02-03 10:29:00,12.0,7.1,29.86,West,270,0.0,0.0,81,0.00,,,0.00,WUHU21623XXSP,2013-02-03 15:29:00,
2013-02-03 10:34:00,12.7,8.0,29.86,West,270,0.0,0.0,81,0.00,,,0.00,WUHU21623XXSP,2013-02-03 15:34:00,
2013-02-03 10:39:00,13.3,8.5,29.87,West,270,0.0,0.0,81,0.00,,,0.00,WUHU21623XXSP,2013-02-03 15:39:00,
2013-02-03 10:44:00,13.6,8.9,29.86,West,270,0.0,0.0,81,0.00,,,0.00,WUHU21623XXSP,2013-02-03 15:44:00,
2013-02-03 10:49:00,14.2,9.4,29.86,West,270,0.0,0.0,81,0.00,,,0.00,WUHU21623XXSP,2013-02-03 15:49:00,
2013-02-03 10:54:00,14.5,9.8,29.87,West,270,0.0,0.0,81,0.00,,,0.00,WUHU21623XXSP,2013-02-03 15:54:00,
2013-02-03 10:59:00,14.9,10.1,29.86,West,270,0.0,0.0,81,0.00,,,0.00,WUHU21623XXSP,2013-02-03 15:59:00,
2013-02-03 11:04:00,15.3,10.0,29.86,West,270,0.0,0.0,80,0.00,,,0.00,WUHU21623XXSP,2013-02-03 16:04:00,
2013-02-03 11:09:00,15.4,10.4,29.86,West,270,0.0,0.0,80,0.00,,,0.00,WUHU21623XXSP,2013-02-03 16:09:00,
2013-02-03 11:14:00,15.6,10.6,29.86,West,270,0.0,0.0,79,0.00,,,0.00,WUHU21623XXSP,2013-02-03 16:14:00,
2013-02-03 11:19:00,15.8,10.5,29.86,West,270,0.0,0.0,79,0.00,,,0.00,WUHU21623XXSP,2013-02-03 16:19:00,
2013-02-03 11:24:00,16.0,10.6,29.85,West,270,0.0,0.0,79,0.00,,,0.00,WUHU21623XXSP,2013-02-03 16:24:00,
2013-02-03 11:29:00,16.3,10.9,29.85,West,270,0.0,0.0,79,0.00,,,0.00,WUHU21623XXSP,2013-02-03 16:29:00,
2013-02-03 11:34:00,16.5,11.1,29.85,West,270,0.0,0.0,79,0.00,,,0.00,WUHU21623XXSP,2013-02-03 16:34:00,
2013-02-03 11:39:00,16.9,11.1,29.85,West,270,0.0,0.0,78,0.00,,,0.00,WUHU21623XXSP,2013-02-03 16:39:00,
2013-02-03 11:44:00,17.2,11.5,29.85,West,270,0.0,0.0,78,0.00,,,0.00,WUHU21623XXSP,2013-02-03 16:44:00,
2013-02-03 11:49:00,17.2,11.5,29.85,West,270,0.0,0.0,78,0.00,,,0.00,WUHU21623XXSP,2013-02-03 16:49:00,
2013-02-03 11:54:00,17.8,12.0,29.85,West,270,0.0,0.0,78,0.00,,,0.00,WUHU21623XXSP,2013-02-03 16:54:00,
2013-02-03 11:59:00,17.8,12.0,29.85,West,270,0.0,0.0,78,0.00,,,0.00,WUHU21623XXSP,2013-02-03 16:59:00,
2013-02-03 12:04:00,18.0,12.1,29.85,West,270,0.0,0.0,78,0.00,,,0.00,WUHU21623XXSP,2013-02-03 17:04:00,
2013-02-03 12:09:00,18.1,12.3,29.85,West,270,0.0,0.0,78,0.00,,,0.00,WUHU21623XXSP,2013-02-03 17:09:00,
2013-02-03 12:14:00,18.3,12.5,29.84,West,270,0.0,0.0,78,0.00,,,0.00,WUHU21623XXSP,2013-02-03 17:14:00,
2013-02-03 12:19:00,18.3,12.5,29.84,West,270,0.0,0.0,78,0.00,,,0.00,WUHU21623XXSP,2013-02-03 17:19:00,
2013-02-03 12:24:00,18.9,13.0,29.84,West,270,0.0,0.0,78,0.00,,,0.00,WUHU21623XXSP,2013-02-03 17:24:00,
2013-02-03 12:29:00,19.0,13.2,29.83,West,270,0.0,0.0,78,0.00,,,0.00,WUHU21623XXSP,2013-02-03 17:29:00,
2013-02-03 12:34:00,19.2,13.4,29.84,West,270,0.0,0.0,78,0.00,,,0.00,WUHU21623XXSP,2013-02-03 17:34:00,
2013-02-03 12:39:00,19.6,13.7,29.83,West,270,0.0,0.0,78,0.00,,,0.00,WUHU21623XXSP,2013-02-03 17:39:00,
2013-02-03 12:44:00,19.6,13.4,29.83,West,270,0.0,0.0,77,0.00,,,0.00,WUHU21623XXSP,2013-02-03 17:44:00,
2013-02-03 12:49:00,19.9,13.8,29.83,West,270,0.0,0.0,77,0.00,,,0.00,WUHU21623XXSP,2013-02-03 17:49:00,
2013-02-03 12:54:00,20.1,14.0,29.82,West,270,0.0,0.0,77,0.00,,,0.00,WUHU21623XXSP,2013-02-03 17:54:00,
2013-02-03 12:59:00,20.1,14.0,29.82,West,270,0.0,0.0,77,0.00,,,0.00,WUHU21623XXSP,2013-02-03 17:59:00,
2013-02-03 13:04:00,19.9,13.8,29.82,West,270,0.0,0.0,77,0.00,,,0.00,WUHU21623XXSP,2013-02-03 18:04:00,
2013-02-03 13:09:00,20.3,14.2,29.82,West,270,0.0,0.0,77,0.00,,,0.00,WUHU21623XXSP,2013-02-03 18:09:00,
2013-02-03 13:14:00,20.3,14.2,29.82,West,270,0.0,0.0,76,0.00,,,0.00,WUHU21623XXSP,2013-02-03 18:14:00,
2013-02-03 13:19:00,20.5,14.0,29.82,West,270,0.0,0.0,76,0.00,,,0.00,WUHU21623XXSP,2013-02-03 18:19:00,
2013-02-03 13:24:00,20.5,14.0,29.82,West,270,0.0,0.0,76,0.00,,,0.00,WUHU21623XXSP,2013-02-03 18:24:00,
2013-02-03 13:29:00,20.8,14.4,29.82,West,270,0.0,0.0,76,0.00,,,0.00,WUHU21623XXSP,2013-02-03 18:29:00,
2013-02-03 13:34:00,20.8,14.1,29.82,West,270,0.0,0.0,75,0.00,,,0.00,WUHU21623XXSP,2013-02-03 18:34:00,
2013-02-03 13:39:00,21.0,14.3,29.81,West,270,0.0,0.0,75,0.00,,,0.00,WUHU21623XXSP,2013-02-03 18:39:00,
2013-02-03 13:44:00,21.0,14.3,29.82,West,270,0.0,0.0,75,0.00,,,0.00,WUHU21623XXSP,2013-02-03 18:44:00,
2013-02-03 13:49:00,21.0,14.3,29.82,West,270,0.0,0.0,75,0.00,,,0.00,WUHU21623XXSP,2013-02-03 18:49:00,
2013-02-03 13:54:00,21.0,14.0,29.82,West,270,0.0,0.0,74,0.00,,,0.00,WUHU21623XXSP,2013-02-03 18:54:00,
2013-02-03 13:59:00,21.0,14.0,29.82,West,270,0.0,0.0,74,0.00,,,0.00,WUHU21623XXSP,2013-02-03 18:59:00,
2013-02-03 14:04:00,21.0,14.0,29.82,West,270,0.0,0.0,74,0.00,,,0.00,WUHU21623XXSP,2013-02-03 19:04:00,
2013-02-03 14:09:00,21.0,14.0,29.81,West,270,0.0,0.0,74,0.00,,,0.00,WUHU21623XXSP,2013-02-03 19:09:00,
2013-02-03 14:14:00,21.4,14.3,29.81,West,270,0.0,0.0,74,0.00,,,0.00,WUHU21623XXSP,2013-02-03 19:14:00,
2013-02-03 14:19:00,21.4,14.3,29.81,West,270,0.0,0.0,74,0.00,,,0.00,WUHU21623XXSP,2013-02-03 19:19:00,
2013-02-03 14:24:00,21.4,14.3,29.81,West,270,0.0,0.0,74,0.00,,,0.00,WUHU21623XXSP,2013-02-03 19:24:00,
2013-02-03 14:29:00,21.2,14.3,29.81,West,270,0.0,0.0,74,0.00,,,0.00,WUHU21623XXSP,2013-02-03 19:29:00,
2013-02-03 14:34:00,21.0,14.0,29.80,West,270,0.0,0.0,74,0.00,,,0.00,WUHU21623XXSP,2013-02-03 19:34:00,
2013-02-03 14:39:00,21.0,14.3,29.81,West,270,0.0,0.0,75,0.00,,,0.00,WUHU21623XXSP,2013-02-03 19:39:00,
2013-02-03 14:44:00,21.0,14.0,29.81,West,270,0.0,0.0,74,0.00,,,0.00,WUHU21623XXSP,2013-02-03 19:44:00,
2013-02-03 14:49:00,21.0,14.3,29.81,West,270,0.0,0.0,75,0.00,,,0.00,WUHU21623XXSP,2013-02-03 19:49:00,
2013-02-03 14:54:00,21.0,14.3,29.81,West,270,0.0,0.0,75,0.00,,,0.00,WUHU21623XXSP,2013-02-03 19:54:00,
2013-02-03 14:59:00,21.0,14.3,29.81,West,270,0.0,0.0,75,0.00,,,0.00,WUHU21623XXSP,2013-02-03 19:59:00,
2013-02-03 15:04:00,21.0,14.3,29.81,West,270,0.0,0.0,75,0.00,,,0.00,WUHU21623XXSP,2013-02-03 20:04:00,
2013-02-03 15:09:00,21.0,14.6,29.82,West,270,0.0,0.0,76,0.00,,,0.00,WUHU21623XXSP,2013-02-03 20:09:00,
2013-02-03 15:14:00,20.8,14.4,29.82,West,270,0.0,0.0,76,0.00,,,0.00,WUHU21623XXSP,2013-02-03 20:14:00,
2013-02-03 15:19:00,20.8,14.4,29.82,West,270,0.0,0.0,76,0.00,,,0.00,WUHU21623XXSP,2013-02-03 20:19:00,
2013-02-03 15:24:00,20.8,14.4,29.83,West,270,0.0,0.0,76,0.00,,,0.00,WUHU21623XXSP,2013-02-03 20:24:00,
2013-02-03 15:29:00,20.8,14.4,29.83,West,270,0.0,0.0,76,0.00,,,0.00,WUHU21623XXSP,2013-02-03 20:29:00,
2013-02-03 15:35:00,20.8,14.4,29.83,West,270,0.0,0.0,76,0.00,,,0.00,WUHU21623XXSP,2013-02-03 20:35:00,
2013-02-03 15:40:00,20.8,14.7,29.83,West,270,0.0,0.0,77,0.00,,,0.00,WUHU21623XXSP,2013-02-03 20:40:00,
2013-02-03 15:45:00,20.8,14.7,29.83,West,270,0.0,0.0,77,0.00,,,0.00,WUHU21623XXSP,2013-02-03 20:45:00,
2013-02-03 15:50:00,20.5,14.3,29.83,West,270,0.0,0.0,77,0.00,,,0.00,WUHU21623XXSP,2013-02-03 20:50:00,
2013-02-03 15:55:00,20.5,14.6,29.83,West,270,0.0,0.0,78,0.00,,,0.00,WUHU21623XXSP,2013-02-03 20:55:00,
2013-02-03 16:00:00,20.5,14.6,29.83,West,270,0.0,0.0,78,0.00,,,0.00,WUHU21623XXSP,2013-02-03 21:00:00,
2013-02-03 16:05:00,20.3,14.5,29.84,West,270,0.0,0.0,78,0.00,,,0.00,WUHU21623XXSP,2013-02-03 21:05:00,
2013-02-03 16:10:00,20.5,15.0,29.84,West,270,0.0,0.0,79,0.00,,,0.00,WUHU21623XXSP,2013-02-03 21:10:00,
2013-02-03 16:15:00,20.3,14.8,29.84,West,270,0.0,0.0,79,0.00,,,0.00,WUHU21623XXSP,2013-02-03 21:15:00,
2013-02-03 16:20:00,20.3,14.8,29.84,West,270,0.0,0.0,79,0.00,,,0.00,WUHU21623XXSP,2013-02-03 21:20:00,
2013-02-03 16:25:00,20.1,14.3,29.84,West,270,0.0,0.0,78,0.00,,,0.00,WUHU21623XXSP,2013-02-03 21:25:00,
2013-02-03 16:30:00,20.1,14.3,29.84,West,270,0.0,0.0,78,0.00,,,0.00,WUHU21623XXSP,2013-02-03 21:30:00,
2013-02-03 16:35:00,19.9,14.1,29.85,West,270,0.0,0.0,78,0.00,,,0.00,WUHU21623XXSP,2013-02-03 21:35:00,
2013-02-03 16:40:00,19.9,14.1,29.85,West,270,0.0,0.0,78,0.00,,,0.00,WUHU21623XXSP,2013-02-03 21:40:00,
2013-02-03 16:45:00,19.9,13.8,29.85,West,270,0.0,0.0,77,0.00,,,0.00,WUHU21623XXSP,2013-02-03 21:45:00,
2013-02-03 16:50:00,19.9,13.8,29.85,West,270,0.0,0.0,77,0.00,,,0.00,WUHU21623XXSP,2013-02-03 21:50:00,
2013-02-03 16:55:00,19.8,13.6,29.85,West,270,0.0,0.0,77,0.00,,,0.00,WUHU21623XXSP,2013-02-03 21:55:00,
2013-02-03 17:00:00,19.8,13.6,29.85,West,270,0.0,0.0,77,0.00,,,0.00,WUHU21623XXSP,2013-02-03 22:00:00,
2013-02-03 17:05:00,19.6,13.4,29.85,West,270,0.0,0.0,77,0.00,,,0.00,WUHU21623XXSP,2013-02-03 22:05:00,
2013-02-03 17:10:00,19.6,13.4,29.85,West,270,0.0,0.0,77,0.00,,,0.00,WUHU21623XXSP,2013-02-03 22:10:00,
2013-02-03 17:15:00,19.4,13.3,29.85,West,270,0.0,0.0,77,0.00,,,0.00,WUHU21623XXSP,2013-02-03 22:15:00,
2013-02-03 17:20:00,19.2,13.1,29.85,West,270,0.0,0.0,76,0.00,,,0.00,WUHU21623XXSP,2013-02-03 22:20:00,
2013-02-03 17:25:00,19.2,12.8,29.86,West,270,0.0,0.0,76,0.00,,,0.00,WUHU21623XXSP,2013-02-03 22:25:00,
2013-02-03 17:30:00,19.0,12.3,29.86,West,270,0.0,0.0,75,0.00,,,0.00,WUHU21623XXSP,2013-02-03 22:30:00,
2013-02-03 17:35:00,18.7,12.0,29.86,West,270,0.0,0.0,75,0.00,,,0.00,WUHU21623XXSP,2013-02-03 22:35:00,
2013-02-03 17:40:00,18.7,12.0,29.86,West,270,0.0,0.0,75,0.00,,,0.00,WUHU21623XXSP,2013-02-03 22:40:00,
2013-02-03 17:45:00,18.3,11.3,29.87,West,270,0.0,0.0,74,0.00,,,0.00,WUHU21623XXSP,2013-02-03 22:45:00,
2013-02-03 17:50:00,18.3,11.3,29.87,West,270,0.0,0.0,74,0.00,,,0.00,WUHU21623XXSP,2013-02-03 22:50:00,
2013-02-03 17:55:00,18.3,11.0,29.87,West,270,0.0,0.0,73,0.00,,,0.00,WUHU21623XXSP,2013-02-03 22:55:00,
2013-02-03 18:00:00,18.1,10.8,29.87,West,270,0.0,0.0,73,0.00,,,0.00,WUHU21623XXSP,2013-02-03 23:00:00,
2013-02-03 18:05:00,18.1,10.8,29.87,West,270,0.0,0.0,73,0.00,,,0.00,WUHU21623XXSP,2013-02-03 23:05:00,
2013-02-03 18:10:00,18.1,10.8,29.88,West,270,0.0,0.0,73,0.00,,,0.00,WUHU21623XXSP,2013-02-03 23:10:00,
2013-02-03 18:15:00,18.1,10.8,29.88,West,270,0.0,0.0,73,0.00,,,0.00,WUHU21623XXSP,2013-02-03 23:15:00,
2013-02-03 18:20:00,18.0,10.7,29.88,West,270,0.0,0.0,73,0.00,,,0.00,WUHU21623XXSP,2013-02-03 23:20:00,
2013-02-03 18:25:00,18.0,10.7,29.89,West,270,0.0,0.0,73,0.00,,,0.00,WUHU21623XXSP,2013-02-03 23:25:00,
2013-02-03 18:30:00,17.8,10.5,29.89,West,270,0.0,0.0,73,0.00,,,0.00,WUHU21623XXSP,2013-02-03 23:30:00,
2013-02-03 18:35:00,17.8,10.5,29.89,West,270,0.0,0.0,73,0.00,,,0.00,WUHU21623XXSP,2013-02-03 23:35:00,
2013-02-03 18:40:00,17.8,10.5,29.89,West,270,0.0,0.0,73,0.00,,,0.00,WUHU21623XXSP,2013-02-03 23:40:00,
2013-02-03 18:45:00,17.4,10.2,29.89,West,270,0.0,0.0,73,0.00,,,0.00,WUHU21623XXSP,2013-02-03 23:45:00,
2013-02-03 18:50:00,17.4,10.2,29.90,West,270,0.0,0.0,73,0.00,,,0.00,WUHU21623XXSP,2013-02-03 23:50:00,
2013-02-03 18:55:00,17.4,10.2,29.90,West,270,0.0,0.0,73,0.00,,,0.00,WUHU21623XXSP,2013-02-03 23:55:00,
2013-02-03 19:00:00,17.4,10.2,29.90,West,270,0.0,0.0,73,0.00,,,0.00,WUHU21623XXSP,2013-02-04 00:00:00,
2013-02-03 19:05:00,17.4,10.2,29.91,West,270,0.0,0.0,73,0.00,,,0.00,WUHU21623XXSP,2013-02-04 00:05:00,
2013-02-03 19:11:00,17.2,10.0,29.91,West,270,0.0,0.0,73,0.00,,,0.00,WUHU21623XXSP,2013-02-04 00:11:00,
2013-02-03 19:16:00,17.2,10.0,29.91,West,270,0.0,0.0,73,0.00,,,0.00,WUHU21623XXSP,2013-02-04 00:16:00,
2013-02-03 19:21:00,17.2,10.0,29.91,West,270,0.0,0.0,73,0.00,,,0.00,WUHU21623XXSP,2013-02-04 00:21:00,
2013-02-03 19:26:00,17.1,10.0,29.91,West,270,0.0,0.0,73,0.00,,,0.00,WUHU21623XXSP,2013-02-04 00:26:00,
2013-02-03 19:31:00,16.9,9.7,29.92,West,270,0.0,0.0,73,0.00,,,0.00,WUHU21623XXSP,2013-02-04 00:31:00,
2013-02-03 19:36:00,16.9,9.7,29.92,West,270,0.0,0.0,73,0.00,,,0.00,WUHU21623XXSP,2013-02-04 00:36:00,
2013-02-03 19:41:00,16.9,9.7,29.92,West,270,0.0,0.0,73,0.00,,,0.00,WUHU21623XXSP,2013-02-04 00:41:00,
2013-02-03 19:46:00,16.7,9.5,29.92,West,270,0.0,0.0,73,0.00,,,0.00,WUHU21623XXSP,2013-02-04 00:46:00,
2013-02-03 19:51:00,16.7,9.5,29.92,West,270,0.0,0.0,73,0.00,,,0.00,WUHU21623XXSP,2013-02-04 00:51:00,
2013-02-03 19:56:00,16.5,9.3,29.92,West,270,0.0,0.0,73,0.00,,,0.00,WUHU21623XXSP,2013-02-04 00:56:00,
2013-02-03 20:01:00,16.5,9.3,29.92,West,270,0.0,0.0,73,0.00,,,0.00,WUHU21623XXSP,2013-02-04 01:01:00,
2013-02-03 20:06:00,16.5,9.0,29.92,West,270,0.0,0.0,72,0.00,,,0.00,WUHU21623XXSP,2013-02-04 01:06:00,
2013-02-03 20:11:00,16.3,8.8,29.92,West,270,0.0,0.0,72,0.00,,,0.00,WUHU21623XXSP,2013-02-04 01:11:00,
2013-02-03 20:16:00,16.3,8.8,29.92,West,270,0.0,0.0,72,0.00,,,0.00,WUHU21623XXSP,2013-02-04 01:16:00,
2013-02-03 20:21:00,16.3,8.8,29.93,West,270,0.0,0.0,72,0.00,,,0.00,WUHU21623XXSP,2013-02-04 01:21:00,
2013-02-03 20:26:00,16.3,8.5,29.93,West,270,0.0,0.0,71,0.00,,,0.00,WUHU21623XXSP,2013-02-04 01:26:00,
2013-02-03 20:31:00,16.3,8.5,29.93,West,270,0.0,0.0,71,0.00,,,0.00,WUHU21623XXSP,2013-02-04 01:31:00,
2013-02-03 20:36:00,16.3,8.5,29.93,West,270,0.0,0.0,71,0.00,,,0.00,WUHU21623XXSP,2013-02-04 01:36:00,
2013-02-03 20:41:00,16.2,8.3,29.93,West,270,0.0,0.0,71,0.00,,,0.00,WUHU21623XXSP,2013-02-04 01:41:00,
2013-02-03 20:46:00,16.2,8.3,29.93,West,270,0.0,0.0,71,0.00,,,0.00,WUHU21623XXSP,2013-02-04 01:46:00,
2013-02-03 20:51:00,16.2,8.3,29.94,West,270,0.0,0.0,71,0.00,,,0.00,WUHU21623XXSP,2013-02-04 01:51:00,
2013-02-03 20:56:00,16.2,8.3,29.94,West,270,0.0,0.0,71,0.00,,,0.00,WUHU21623XXSP,2013-02-04 01:56:00,
2013-02-03 21:01:00,16.0,8.2,29.94,West,270,0.0,0.0,71,0.00,,,0.00,WUHU21623XXSP,2013-02-04 02:01:00,
2013-02-03 21:06:00,16.0,8.2,29.94,West,270,0.0,0.0,71,0.00,,,0.00,WUHU21623XXSP,2013-02-04 02:06:00,
2013-02-03 21:11:00,16.0,8.2,29.95,West,270,0.0,0.0,71,0.00,,,0.00,WUHU21623XXSP,2013-02-04 02:11:00,
2013-02-03 21:16:00,16.0,8.2,29.95,West,270,0.0,0.0,71,0.00,,,0.00,WUHU21623XXSP,2013-02-04 02:16:00,
2013-02-03 21:21:00,16.0,8.2,29.95,West,270,0.0,0.0,71,0.00,,,0.00,WUHU21623XXSP,2013-02-04 02:21:00,
2013-02-03 21:26:00,15.8,8.0,29.95,West,270,0.0,0.0,71,0.00,,,0.00,WUHU21623XXSP,2013-02-04 02:26:00,
2013-02-03 21:31:00,15.8,8.0,29.96,West,270,0.0,0.0,71,0.00,,,0.00,WUHU21623XXSP,2013-02-04 02:31:00,
2013-02-03 21:36:00,15.8,7.7,29.96,West,270,0.0,0.0,70,0.00,,,0.00,WUHU21623XXSP,2013-02-04 02:36:00,
2013-02-03 21:41:00,15.6,7.5,29.95,West,270,0.0,0.0,70,0.00,,,0.00,WUHU21623XXSP,2013-02-04 02:41:00,
2013-02-03 21:46:00,15.6,7.5,29.96,West,270,0.0,0.0,70,0.00,,,0.00,WUHU21623XXSP,2013-02-04 02:46:00,
2013-02-03 21:51:00,15.6,7.5,29.95,West,270,0.0,0.0,70,0.00,,,0.00,WUHU21623XXSP,2013-02-04 02:51:00,
2013-02-03 21:56:00,15.6,7.5,29.95,West,270,0.0,0.0,70,0.00,,,0.00,WUHU21623XXSP,2013-02-04 02:56:00,
2013-02-03 22:01:00,15.6,7.5,29.95,West,270,0.0,0.0,70,0.00,,,0.00,WUHU21623XXSP,2013-02-04 03:01:00,
2013-02-03 22:06:00,15.6,7.5,29.96,West,270,0.0,0.0,70,0.00,,,0.00,WUHU21623XXSP,2013-02-04 03:06:00,
2013-02-03 22:11:00,15.6,7.2,29.96,West,270,0.0,0.0,69,0.00,,,0.00,WUHU21623XXSP,2013-02-04 03:11:00,
2013-02-03 22:16:00,15.6,7.2,29.96,West,270,0.0,0.0,69,0.00,,,0.00,WUHU21623XXSP,2013-02-04 03:16:00,
2013-02-03 22:21:00,15.6,7.2,29.96,West,270,0.0,0.0,69,0.00,,,0.00,WUHU21623XXSP,2013-02-04 03:21:00,
2013-02-03 22:26:00,15.6,7.2,29.96,West,270,0.0,0.0,69,0.00,,,0.00,WUHU21623XXSP,2013-02-04 03:26:00,
2013-02-03 22:31:00,15.6,7.2,29.96,West,270,0.0,0.0,69,0.00,,,0.00,WUHU21623XXSP,2013-02-04 03:31:00,
2013-02-03 22:36:00,15.6,7.2,29.96,West,270,0.0,0.0,69,0.00,,,0.00,WUHU21623XXSP,2013-02-04 03:36:00,
2013-02-03 22:41:00,15.6,7.2,29.96,West,270,0.0,0.0,69,0.00,,,0.00,WUHU21623XXSP,2013-02-04 03:41:00,
2013-02-03 22:46:00,15.6,7.2,29.96,West,270,0.0,0.0,69,0.00,,,0.00,WUHU21623XXSP,2013-02-04 03:46:00,
2013-02-03 22:51:00,15.6,7.5,29.96,West,270,0.0,0.0,70,0.00,,,0.00,WUHU21623XXSP,2013-02-04 03:51:00,
2013-02-03 22:57:00,15.6,7.2,29.96,West,270,0.0,0.0,69,0.00,,,0.00,WUHU21623XXSP,2013-02-04 03:57:00,
2013-02-03 23:02:00,15.6,7.5,29.96,West,270,0.0,0.0,70,0.00,,,0.00,WUHU21623XXSP,2013-02-04 04:02:00,
2013-02-03 23:07:00,15.6,7.5,29.96,West,270,0.0,0.0,70,0.00,,,0.00,WUHU21623XXSP,2013-02-04 04:07:00,
2013-02-03 23:12:00,15.6,7.5,29.96,West,270,0.0,0.0,70,0.00,,,0.00,WUHU21623XXSP,2013-02-04 04:12:00,
2013-02-03 23:17:00,15.6,7.5,29.96,West,270,0.0,0.0,70,0.00,,,0.00,WUHU21623XXSP,2013-02-04 04:17:00,
2013-02-03 23:22:00,15.6,7.5,29.96,West,270,0.0,0.0,70,0.00,,,0.00,WUHU21623XXSP,2013-02-04 04:22:00,
2013-02-03 23:27:00,15.6,7.5,29.96,West,270,0.0,0.0,70,0.00,,,0.00,WUHU21623XXSP,2013-02-04 04:27:00,
2013-02-03 23:32:00,15.6,7.5,29.96,West,270,0.0,0.0,70,0.00,,,0.00,WUHU21623XXSP,2013-02-04 04:32:00,
2013-02-03 23:37:00,15.6,7.5,29.96,West,270,0.0,0.0,70,0.00,,,0.00,WUHU21623XXSP,2013-02-04 04:37:00,
2013-02-03 23:42:00,15.6,7.5,29.95,West,270,0.0,0.0,70,0.00,,,0.00,WUHU21623XXSP,2013-02-04 04:42:00,
2013-02-03 23:47:00,15.6,7.5,29.95,West,270,0.0,0.0,70,0.00,,,0.00,WUHU21623XXSP,2013-02-04 04:47:00,
2013-02-03 23:52:00,15.6,7.5,29.95,West,270,0.0,0.0,70,0.00,,,0.00,WUHU21623XXSP,2013-02-04 04:52:00,
2013-02-03 23:57:00,15.6,7.5,29.96,West,270,0.0,0.0,70,0.00,,,0.00,WUHU21623XXSP,2013-02-04 04:57:00,